Barkald — V7IM6 — position and weather

sailwx.info

Track history (hours):
 
Tides and Currents Weather Stations Pressure Air Temp Water Temp Dewpoint Dewpoint Depression Visibility Wind Speed Wind Dir Waves Ship Positions

Barkald

Last reported at 2014-Oct-31 22:33 UTC. Time now 2014-Nov-01 12:03 UTC.
Position N 39°18' W 075°23'.

Length 189 m; draft 6.5 m.

MMSI: 538002409.

Date/timePositionNaut miles runAvg speedWind from/ knotsBaromVisibWave heightAir tempDewpointWater temp
2014-Oct-31 22:33N 39°18' W 075°23'1211.9
2014-Oct-31 21:33N 39°27' W 075°33'1010.2
2014-Oct-31 20:33N 39°37' W 075°35'1010.5
2014-Oct-31 19:33N 39°46' W 075°28'1010.5
2014-Oct-31 18:33N 39°51' W 075°16'25 6.3
2014-Oct-31 14:31N 40°07' W 074°50'0 0.0
2014-Oct-31 13:33N 40°07' W 074°50'0 0.0
2014-Oct-31 12:27N 40°07' W 074°50'5 0.1
2014-Oct-29 09:15N 40°04' W 074°56'6 9.2
2014-Oct-29 08:33N 40°01' W 075°03'10 6.9
2014-Oct-29 07:10N 39°53' W 075°11'6 9.7
2014-Oct-29 06:31N 39°51' W 075°18'1010.6
2014-Oct-29 05:33N 39°45' W 075°29'1110.8
2014-Oct-29 04:33N 39°35' W 075°33'1111.3
2014-Oct-29 03:33N 39°24' W 075°30'1712.7
2014-Oct-29 02:15N 39°11' W 075°16'2112.4
2014-Oct-29 00:33N 38°52' W 075°04'6 6.4
2014-Oct-28 23:33N 38°47' W 074°59'7 7.0
2014-Oct-28 22:33N 38°48' W 074°50'9 8.6
2014-Oct-28 21:33N 38°48' W 074°39'10 8.5
2014-Oct-28 20:24N 38°50' W 074°26'6 6.6
2014-Oct-28 19:33N 38°51' W 074°19'5 4.9
2014-Oct-28 18:33N 38°52' W 074°13'4 3.7
2014-Oct-28 17:33N 38°53' W 074°08'3210.6
2014-Oct-28 14:32N 39°00' W 073°28'1111.7
2014-Oct-28 13:33N 39°02' W 073°14'1212.0
2014-Oct-28 12:33N 39°05' W 072°59'1211.9
2014-Oct-28 11:33N 39°07' W 072°44'1212.0
2014-Oct-28 10:33N 39°10' W 072°29'1212.1
2014-Oct-28 09:33N 39°12' W 072°13'1212.1
2014-Oct-28 08:33N 39°15' W 071°58'1312.7
2014-Oct-28 07:33N 39°18' W 071°42'1313.0
2014-Oct-28 06:33N 39°21' W 071°26'1312.8
2014-Oct-28 05:33N 39°24' W 071°10'1313.0
2014-Oct-28 04:33N 39°27' W 070°53'1312.9
2014-Oct-28 03:33N 39°29' W 070°37'1312.8
2014-Oct-28 02:33N 39°32' W 070°21'1212.3
2014-Oct-28 01:32N 39°35' W 070°05'40611.2
2014-Oct-26 13:23N 44°18' W 063°33'910.8
2014-Oct-26 12:33N 44°27' W 063°29'1010.2
2014-Oct-26 11:33N 44°36' W 063°33'6 6.0
2014-Oct-26 10:33N 44°41' W 063°38'0 0.5
2014-Oct-26 09:33N 44°42' W 063°37'0 0.0
2014-Oct-26 08:33N 44°42' W 063°37'0 0.0
2014-Oct-26 07:29N 44°42' W 063°37'0 0.0
2014-Oct-26 06:32N 44°42' W 063°37'0 0.0
2014-Oct-26 05:32N 44°42' W 063°37'0 0.0
2014-Oct-26 04:32N 44°42' W 063°37'0 0.0
2014-Oct-26 03:32N 44°42' W 063°37'0 0.0
2014-Oct-26 02:32N 44°42' W 063°37'0 0.0
2014-Oct-26 01:32N 44°42' W 063°37'0 0.0
2014-Oct-26 00:32N 44°42' W 063°37'0 0.0
2014-Oct-25 23:23N 44°42' W 063°37'0 0.0
2014-Oct-25 22:26N 44°42' W 063°37'0 0.0
2014-Oct-25 21:26N 44°42' W 063°37'0 0.0
2014-Oct-25 20:26N 44°42' W 063°37'0 0.0
2014-Oct-25 19:29N 44°42' W 063°37'0 0.0
2014-Oct-25 18:29N 44°42' W 063°37'0 0.0
2014-Oct-25 17:29N 44°42' W 063°37'0 0.0
2014-Oct-25 16:32N 44°42' W 063°37'0 0.0
2014-Oct-25 15:32N 44°42' W 063°37'0 0.0
2014-Oct-25 14:32N 44°42' W 063°37'0 0.0
2014-Oct-25 13:32N 44°42' W 063°37'0 0.0
2014-Oct-25 12:32N 44°42' W 063°37'0 0.4
2014-Oct-25 11:33N 44°42' W 063°38'4 4.4
2014-Oct-25 10:33N 44°39' W 063°33'9 8.8
2014-Oct-25 09:32N 44°30' W 063°29'9 8.9
2014-Oct-25 08:33N 44°28' W 063°18'  
Track history (hours):
 
Tides and Currents Weather Stations Pressure Air Temp Water Temp Dewpoint Dewpoint Depression Visibility Wind Speed Wind Dir Waves Ship Positions

Barkald

Last reported at 2014-Oct-31 22:33 UTC. Time now 2014-Nov-01 12:03 UTC.
Position N 39°18' W 075°23'.

Length 189 m; draft 6.5 m.

MMSI: 538002409.

Date/timePositionNaut miles runAvg speedWind from/ knotsBaromVisibWave heightAir tempDewpointWater temp
2014-Oct-31 22:33N 39°18' W 075°23'1211.9
2014-Oct-31 21:33N 39°27' W 075°33'1010.2
2014-Oct-31 20:33N 39°37' W 075°35'1010.5
2014-Oct-31 19:33N 39°46' W 075°28'1010.5
2014-Oct-31 18:33N 39°51' W 075°16'25 6.3
2014-Oct-31 14:31N 40°07' W 074°50'0 0.0
2014-Oct-31 13:33N 40°07' W 074°50'0 0.0
2014-Oct-31 12:27N 40°07' W 074°50'5 0.1
2014-Oct-29 09:15N 40°04' W 074°56'6 9.2
2014-Oct-29 08:33N 40°01' W 075°03'10 6.9
2014-Oct-29 07:10N 39°53' W 075°11'6 9.7
2014-Oct-29 06:31N 39°51' W 075°18'1010.6
2014-Oct-29 05:33N 39°45' W 075°29'1110.8
2014-Oct-29 04:33N 39°35' W 075°33'1111.3
2014-Oct-29 03:33N 39°24' W 075°30'1712.7
2014-Oct-29 02:15N 39°11' W 075°16'2112.4
2014-Oct-29 00:33N 38°52' W 075°04'6 6.4
2014-Oct-28 23:33N 38°47' W 074°59'7 7.0
2014-Oct-28 22:33N 38°48' W 074°50'9 8.6
2014-Oct-28 21:33N 38°48' W 074°39'10 8.5
2014-Oct-28 20:24N 38°50' W 074°26'6 6.6
2014-Oct-28 19:33N 38°51' W 074°19'5 4.9
2014-Oct-28 18:33N 38°52' W 074°13'4 3.7
2014-Oct-28 17:33N 38°53' W 074°08'3210.6
2014-Oct-28 14:32N 39°00' W 073°28'1111.7
2014-Oct-28 13:33N 39°02' W 073°14'1212.0
2014-Oct-28 12:33N 39°05' W 072°59'1211.9
2014-Oct-28 11:33N 39°07' W 072°44'1212.0
2014-Oct-28 10:33N 39°10' W 072°29'1212.1
2014-Oct-28 09:33N 39°12' W 072°13'1212.1
2014-Oct-28 08:33N 39°15' W 071°58'1312.7
2014-Oct-28 07:33N 39°18' W 071°42'1313.0
2014-Oct-28 06:33N 39°21' W 071°26'1312.8
2014-Oct-28 05:33N 39°24' W 071°10'1313.0
2014-Oct-28 04:33N 39°27' W 070°53'1312.9
2014-Oct-28 03:33N 39°29' W 070°37'1312.8
2014-Oct-28 02:33N 39°32' W 070°21'1212.3
2014-Oct-28 01:32N 39°35' W 070°05'40611.2
2014-Oct-26 13:23N 44°18' W 063°33'910.8
2014-Oct-26 12:33N 44°27' W 063°29'1010.2
2014-Oct-26 11:33N 44°36' W 063°33'6 6.0
2014-Oct-26 10:33N 44°41' W 063°38'0 0.5
2014-Oct-26 09:33N 44°42' W 063°37'0 0.0
2014-Oct-26 08:33N 44°42' W 063°37'0 0.0
2014-Oct-26 07:29N 44°42' W 063°37'0 0.0
2014-Oct-26 06:32N 44°42' W 063°37'0 0.0
2014-Oct-26 05:32N 44°42' W 063°37'0 0.0
2014-Oct-26 04:32N 44°42' W 063°37'0 0.0
2014-Oct-26 03:32N 44°42' W 063°37'0 0.0
2014-Oct-26 02:32N 44°42' W 063°37'0 0.0
2014-Oct-26 01:32N 44°42' W 063°37'0 0.0
2014-Oct-26 00:32N 44°42' W 063°37'0 0.0
2014-Oct-25 23:23N 44°42' W 063°37'0 0.0
2014-Oct-25 22:26N 44°42' W 063°37'0 0.0
2014-Oct-25 21:26N 44°42' W 063°37'0 0.0
2014-Oct-25 20:26N 44°42' W 063°37'0 0.0
2014-Oct-25 19:29N 44°42' W 063°37'0 0.0
2014-Oct-25 18:29N 44°42' W 063°37'0 0.0
2014-Oct-25 17:29N 44°42' W 063°37'0 0.0
2014-Oct-25 16:32N 44°42' W 063°37'0 0.0
2014-Oct-25 15:32N 44°42' W 063°37'0 0.0
2014-Oct-25 14:32N 44°42' W 063°37'0 0.0
2014-Oct-25 13:32N 44°42' W 063°37'0 0.0
2014-Oct-25 12:32N 44°42' W 063°37'0 0.4
2014-Oct-25 11:33N 44°42' W 063°38'4 4.4
2014-Oct-25 10:33N 44°39' W 063°33'9 8.8
2014-Oct-25 09:32N 44°30' W 063°29'9 8.9
2014-Oct-25 08:33N 44°28' W 063°18'  

Dump ship's entire track history